sensor_id;sensor_type;location;lat;lon;timestamp;P1;durP1;ratioP1;P2;durP2;ratioP2
9508;SDS011;4792;50.088;8.122;2023-09-07T00:00:23;5.05;;;2.47;;
9508;SDS011;4792;50.088;8.122;2023-09-07T00:02:51;4.88;;;2.30;;
9508;SDS011;4792;50.088;8.122;2023-09-07T00:05:19;3.20;;;2.50;;
9508;SDS011;4792;50.088;8.122;2023-09-07T00:07:46;4.05;;;2.20;;
9508;SDS011;4792;50.088;8.122;2023-09-07T00:10:14;3.35;;;2.70;;
9508;SDS011;4792;50.088;8.122;2023-09-07T00:12:45;2.85;;;2.28;;
9508;SDS011;4792;50.088;8.122;2023-09-07T00:15:13;2.45;;;2.25;;
9508;SDS011;4792;50.088;8.122;2023-09-07T00:17:40;4.13;;;2.53;;
9508;SDS011;4792;50.088;8.122;2023-09-07T00:20:08;3.25;;;2.47;;
9508;SDS011;4792;50.088;8.122;2023-09-07T00:22:37;7.45;;;2.40;;
9508;SDS011;4792;50.088;8.122;2023-09-07T00:25:05;6.38;;;2.45;;
9508;SDS011;4792;50.088;8.122;2023-09-07T00:27:33;3.10;;;2.80;;
9508;SDS011;4792;50.088;8.122;2023-09-07T00:30:03;3.25;;;2.55;;
9508;SDS011;4792;50.088;8.122;2023-09-07T00:32:31;3.97;;;2.08;;
9508;SDS011;4792;50.088;8.122;2023-09-07T00:34:59;3.25;;;2.20;;
9508;SDS011;4792;50.088;8.122;2023-09-07T00:37:27;3.08;;;2.47;;
9508;SDS011;4792;50.088;8.122;2023-09-07T00:39:55;3.42;;;2.58;;
9508;SDS011;4792;50.088;8.122;2023-09-07T00:42:22;2.88;;;2.10;;
9508;SDS011;4792;50.088;8.122;2023-09-07T00:44:50;4.80;;;2.70;;
9508;SDS011;4792;50.088;8.122;2023-09-07T00:47:19;5.82;;;2.22;;
9508;SDS011;4792;50.088;8.122;2023-09-07T00:49:46;5.40;;;2.78;;
9508;SDS011;4792;50.088;8.122;2023-09-07T00:52:14;2.50;;;2.28;;
9508;SDS011;4792;50.088;8.122;2023-09-07T00:54:42;5.38;;;2.63;;
9508;SDS011;4792;50.088;8.122;2023-09-07T00:57:10;5.40;;;2.55;;
9508;SDS011;4792;50.088;8.122;2023-09-07T00:59:37;3.13;;;2.60;;
9508;SDS011;4792;50.088;8.122;2023-09-07T01:02:05;8.05;;;2.40;;
9508;SDS011;4792;50.088;8.122;2023-09-07T01:04:34;3.22;;;2.58;;
9508;SDS011;4792;50.088;8.122;2023-09-07T01:07:02;2.97;;;2.42;;
9508;SDS011;4792;50.088;8.122;2023-09-07T01:09:32;2.70;;;2.50;;
9508;SDS011;4792;50.088;8.122;2023-09-07T01:12:03;3.17;;;2.42;;
9508;SDS011;4792;50.088;8.122;2023-09-07T01:14:33;5.35;;;2.53;;
9508;SDS011;4792;50.088;8.122;2023-09-07T01:17:01;2.80;;;2.58;;
9508;SDS011;4792;50.088;8.122;2023-09-07T01:19:29;2.30;;;2.10;;
9508;SDS011;4792;50.088;8.122;2023-09-07T01:21:58;4.90;;;2.70;;
9508;SDS011;4792;50.088;8.122;2023-09-07T01:24:26;3.17;;;2.60;;
9508;SDS011;4792;50.088;8.122;2023-09-07T01:26:56;4.80;;;2.80;;
9508;SDS011;4792;50.088;8.122;2023-09-07T01:29:24;3.15;;;2.30;;
9508;SDS011;4792;50.088;8.122;2023-09-07T01:31:55;2.80;;;2.38;;
9508;SDS011;4792;50.088;8.122;2023-09-07T01:34:23;4.78;;;2.75;;
9508;SDS011;4792;50.088;8.122;2023-09-07T01:36:51;2.45;;;2.25;;
9508;SDS011;4792;50.088;8.122;2023-09-07T01:39:20;3.28;;;2.60;;
9508;SDS011;4792;50.088;8.122;2023-09-07T01:41:48;4.07;;;2.35;;
9508;SDS011;4792;50.088;8.122;2023-09-07T01:44:15;3.47;;;2.25;;
9508;SDS011;4792;50.088;8.122;2023-09-07T01:46:43;3.97;;;2.72;;
9508;SDS011;4792;50.088;8.122;2023-09-07T01:49:11;4.07;;;2.72;;
9508;SDS011;4792;50.088;8.122;2023-09-07T01:51:38;3.83;;;2.90;;
9508;SDS011;4792;50.088;8.122;2023-09-07T01:54:06;5.13;;;2.72;;
9508;SDS011;4792;50.088;8.122;2023-09-07T01:56:37;2.60;;;2.40;;
9508;SDS011;4792;50.088;8.122;2023-09-07T01:59:05;3.93;;;2.80;;
9508;SDS011;4792;50.088;8.122;2023-09-07T02:01:33;3.60;;;2.63;;
9508;SDS011;4792;50.088;8.122;2023-09-07T02:04:03;3.07;;;2.80;;
9508;SDS011;4792;50.088;8.122;2023-09-07T02:06:31;6.83;;;2.53;;
9508;SDS011;4792;50.088;8.122;2023-09-07T02:08:59;3.70;;;2.73;;
9508;SDS011;4792;50.088;8.122;2023-09-07T02:11:26;3.70;;;2.88;;
9508;SDS011;4792;50.088;8.122;2023-09-07T02:13:55;3.50;;;2.50;;
9508;SDS011;4792;50.088;8.122;2023-09-07T02:16:23;6.53;;;2.60;;
9508;SDS011;4792;50.088;8.122;2023-09-07T02:18:59;3.47;;;2.90;;
9508;SDS011;4792;50.088;8.122;2023-09-07T02:21:28;6.47;;;2.73;;
9508;SDS011;4792;50.088;8.122;2023-09-07T02:23:55;3.97;;;2.90;;
9508;SDS011;4792;50.088;8.122;2023-09-07T02:26:23;4.63;;;2.80;;
9508;SDS011;4792;50.088;8.122;2023-09-07T02:28:51;3.80;;;3.03;;
9508;SDS011;4792;50.088;8.122;2023-09-07T02:31:20;4.83;;;2.60;;
9508;SDS011;4792;50.088;8.122;2023-09-07T02:33:48;7.37;;;3.00;;
9508;SDS011;4792;50.088;8.122;2023-09-07T02:36:15;5.90;;;3.13;;
9508;SDS011;4792;50.088;8.122;2023-09-07T02:38:43;3.90;;;2.73;;
9508;SDS011;4792;50.088;8.122;2023-09-07T02:41:11;3.20;;;2.90;;
9508;SDS011;4792;50.088;8.122;2023-09-07T02:43:38;3.77;;;3.13;;
9508;SDS011;4792;50.088;8.122;2023-09-07T02:46:06;3.10;;;2.80;;
9508;SDS011;4792;50.088;8.122;2023-09-07T02:48:35;5.70;;;3.27;;
9508;SDS011;4792;50.088;8.122;2023-09-07T02:51:03;6.37;;;3.20;;
9508;SDS011;4792;50.088;8.122;2023-09-07T02:53:31;3.57;;;2.90;;
9508;SDS011;4792;50.088;8.122;2023-09-07T02:55:58;3.50;;;3.10;;
9508;SDS011;4792;50.088;8.122;2023-09-07T02:58:28;4.10;;;2.90;;
9508;SDS011;4792;50.088;8.122;2023-09-07T03:00:56;5.20;;;3.10;;
9508;SDS011;4792;50.088;8.122;2023-09-07T03:03:24;6.37;;;3.90;;
9508;SDS011;4792;50.088;8.122;2023-09-07T03:05:53;4.53;;;3.50;;
9508;SDS011;4792;50.088;8.122;2023-09-07T03:08:21;5.37;;;3.10;;
9508;SDS011;4792;50.088;8.122;2023-09-07T03:10:51;3.73;;;3.33;;
9508;SDS011;4792;50.088;8.122;2023-09-07T03:13:18;3.97;;;2.83;;
9508;SDS011;4792;50.088;8.122;2023-09-07T03:15:46;3.63;;;2.87;;
9508;SDS011;4792;50.088;8.122;2023-09-07T03:18:13;3.70;;;3.23;;
9508;SDS011;4792;50.088;8.122;2023-09-07T03:20:41;5.23;;;3.10;;
9508;SDS011;4792;50.088;8.122;2023-09-07T03:23:10;3.50;;;3.10;;
9508;SDS011;4792;50.088;8.122;2023-09-07T03:25:38;3.17;;;2.67;;
9508;SDS011;4792;50.088;8.122;2023-09-07T03:28:05;5.97;;;3.27;;
9508;SDS011;4792;50.088;8.122;2023-09-07T03:30:33;5.17;;;3.10;;
9508;SDS011;4792;50.088;8.122;2023-09-07T03:33:01;4.37;;;2.93;;
9508;SDS011;4792;50.088;8.122;2023-09-07T03:35:29;3.70;;;3.13;;
9508;SDS011;4792;50.088;8.122;2023-09-07T03:37:57;5.23;;;3.00;;
9508;SDS011;4792;50.088;8.122;2023-09-07T03:40:25;4.63;;;3.07;;
9508;SDS011;4792;50.088;8.122;2023-09-07T03:42:53;4.73;;;3.10;;
9508;SDS011;4792;50.088;8.122;2023-09-07T03:45:21;3.80;;;3.30;;
9508;SDS011;4792;50.088;8.122;2023-09-07T03:47:48;4.47;;;2.87;;
9508;SDS011;4792;50.088;8.122;2023-09-07T03:50:16;4.87;;;3.37;;
9508;SDS011;4792;50.088;8.122;2023-09-07T03:52:44;4.80;;;3.30;;
9508;SDS011;4792;50.088;8.122;2023-09-07T03:55:12;5.03;;;3.30;;
9508;SDS011;4792;50.088;8.122;2023-09-07T03:57:41;5.77;;;3.30;;
9508;SDS011;4792;50.088;8.122;2023-09-07T04:00:09;4.00;;;3.27;;
9508;SDS011;4792;50.088;8.122;2023-09-07T04:02:37;5.97;;;3.37;;
9508;SDS011;4792;50.088;8.122;2023-09-07T04:05:06;4.00;;;3.23;;
9508;SDS011;4792;50.088;8.122;2023-09-07T04:07:33;3.43;;;3.13;;
9508;SDS011;4792;50.088;8.122;2023-09-07T04:10:01;3.93;;;3.07;;
9508;SDS011;4792;50.088;8.122;2023-09-07T04:12:29;4.13;;;3.60;;
9508;SDS011;4792;50.088;8.122;2023-09-07T04:14:58;3.80;;;3.40;;
9508;SDS011;4792;50.088;8.122;2023-09-07T04:17:27;3.87;;;3.40;;
9508;SDS011;4792;50.088;8.122;2023-09-07T04:19:54;4.10;;;3.40;;
9508;SDS011;4792;50.088;8.122;2023-09-07T04:22:22;6.00;;;3.80;;
9508;SDS011;4792;50.088;8.122;2023-09-07T04:24:50;6.03;;;3.50;;
9508;SDS011;4792;50.088;8.122;2023-09-07T04:27:17;5.13;;;3.47;;
9508;SDS011;4792;50.088;8.122;2023-09-07T04:29:45;5.20;;;3.77;;
9508;SDS011;4792;50.088;8.122;2023-09-07T04:32:14;4.53;;;3.50;;
9508;SDS011;4792;50.088;8.122;2023-09-07T04:34:42;6.17;;;3.57;;
9508;SDS011;4792;50.088;8.122;2023-09-07T04:37:10;8.97;;;4.93;;
9508;SDS011;4792;50.088;8.122;2023-09-07T04:39:38;7.77;;;4.03;;
9508;SDS011;4792;50.088;8.122;2023-09-07T04:42:06;7.33;;;3.93;;
9508;SDS011;4792;50.088;8.122;2023-09-07T04:44:35;8.53;;;3.67;;
9508;SDS011;4792;50.088;8.122;2023-09-07T04:47:02;4.43;;;3.47;;
9508;SDS011;4792;50.088;8.122;2023-09-07T04:49:32;4.60;;;3.43;;
9508;SDS011;4792;50.088;8.122;2023-09-07T04:52:00;6.70;;;3.77;;
9508;SDS011;4792;50.088;8.122;2023-09-07T04:54:27;4.30;;;3.50;;
9508;SDS011;4792;50.088;8.122;2023-09-07T04:56:55;4.50;;;3.63;;
9508;SDS011;4792;50.088;8.122;2023-09-07T04:59:23;5.57;;;3.30;;
9508;SDS011;4792;50.088;8.122;2023-09-07T05:01:50;4.70;;;3.50;;
9508;SDS011;4792;50.088;8.122;2023-09-07T05:04:18;5.27;;;3.80;;
9508;SDS011;4792;50.088;8.122;2023-09-07T05:06:47;4.50;;;3.43;;
9508;SDS011;4792;50.088;8.122;2023-09-07T05:09:15;6.03;;;3.63;;
9508;SDS011;4792;50.088;8.122;2023-09-07T05:11:42;6.23;;;3.60;;
9508;SDS011;4792;50.088;8.122;2023-09-07T05:14:10;4.63;;;4.10;;
9508;SDS011;4792;50.088;8.122;2023-09-07T05:16:37;6.07;;;3.70;;
9508;SDS011;4792;50.088;8.122;2023-09-07T05:19:05;6.37;;;4.00;;
9508;SDS011;4792;50.088;8.122;2023-09-07T05:21:33;10.27;;;4.10;;
9508;SDS011;4792;50.088;8.122;2023-09-07T05:24:02;5.80;;;4.00;;
9508;SDS011;4792;50.088;8.122;2023-09-07T05:26:30;4.13;;;3.73;;
9508;SDS011;4792;50.088;8.122;2023-09-07T05:28:57;6.87;;;3.70;;
9508;SDS011;4792;50.088;8.122;2023-09-07T05:31:25;6.40;;;4.00;;
9508;SDS011;4792;50.088;8.122;2023-09-07T05:33:53;4.07;;;3.63;;
9508;SDS011;4792;50.088;8.122;2023-09-07T05:36:20;6.30;;;3.43;;
9508;SDS011;4792;50.088;8.122;2023-09-07T05:38:48;4.50;;;3.77;;
9508;SDS011;4792;50.088;8.122;2023-09-07T05:41:17;7.83;;;3.90;;
9508;SDS011;4792;50.088;8.122;2023-09-07T05:43:45;5.13;;;3.70;;
9508;SDS011;4792;50.088;8.122;2023-09-07T05:46:13;4.47;;;3.77;;
9508;SDS011;4792;50.088;8.122;2023-09-07T05:48:40;4.00;;;3.60;;
9508;SDS011;4792;50.088;8.122;2023-09-07T05:51:08;5.83;;;3.87;;
9508;SDS011;4792;50.088;8.122;2023-09-07T05:53:36;4.90;;;3.80;;
9508;SDS011;4792;50.088;8.122;2023-09-07T05:56:03;5.97;;;3.90;;
9508;SDS011;4792;50.088;8.122;2023-09-07T05:58:32;4.87;;;3.90;;
9508;SDS011;4792;50.088;8.122;2023-09-07T06:01:00;7.63;;;3.67;;
9508;SDS011;4792;50.088;8.122;2023-09-07T06:03:28;4.50;;;3.87;;
9508;SDS011;4792;50.088;8.122;2023-09-07T06:05:56;5.90;;;4.30;;
9508;SDS011;4792;50.088;8.122;2023-09-07T06:08:24;4.43;;;3.80;;
9508;SDS011;4792;50.088;8.122;2023-09-07T06:10:53;4.50;;;3.60;;
9508;SDS011;4792;50.088;8.122;2023-09-07T06:13:20;5.27;;;3.97;;
9508;SDS011;4792;50.088;8.122;2023-09-07T06:15:49;7.87;;;3.97;;
9508;SDS011;4792;50.088;8.122;2023-09-07T06:18:17;5.67;;;3.70;;
9508;SDS011;4792;50.088;8.122;2023-09-07T06:20:44;6.33;;;3.50;;
9508;SDS011;4792;50.088;8.122;2023-09-07T06:23:13;5.33;;;3.77;;
9508;SDS011;4792;50.088;8.122;2023-09-07T06:25:40;6.60;;;3.67;;
9508;SDS011;4792;50.088;8.122;2023-09-07T06:28:08;7.77;;;3.57;;
9508;SDS011;4792;50.088;8.122;2023-09-07T06:30:36;4.87;;;3.77;;
9508;SDS011;4792;50.088;8.122;2023-09-07T06:33:05;6.53;;;4.47;;
9508;SDS011;4792;50.088;8.122;2023-09-07T06:35:33;6.53;;;3.93;;
9508;SDS011;4792;50.088;8.122;2023-09-07T06:38:01;5.60;;;3.67;;
9508;SDS011;4792;50.088;8.122;2023-09-07T06:40:29;6.30;;;3.73;;
9508;SDS011;4792;50.088;8.122;2023-09-07T06:42:56;4.40;;;4.00;;
9508;SDS011;4792;50.088;8.122;2023-09-07T06:45:24;5.90;;;3.80;;
9508;SDS011;4792;50.088;8.122;2023-09-07T06:47:53;4.30;;;3.90;;
9508;SDS011;4792;50.088;8.122;2023-09-07T06:50:22;5.60;;;3.53;;
9508;SDS011;4792;50.088;8.122;2023-09-07T06:52:49;4.53;;;3.73;;
9508;SDS011;4792;50.088;8.122;2023-09-07T06:55:18;4.00;;;3.60;;
9508;SDS011;4792;50.088;8.122;2023-09-07T06:57:46;4.80;;;3.70;;
9508;SDS011;4792;50.088;8.122;2023-09-07T07:00:14;8.43;;;3.93;;
9508;SDS011;4792;50.088;8.122;2023-09-07T07:02:42;5.30;;;3.90;;
9508;SDS011;4792;50.088;8.122;2023-09-07T07:05:09;4.03;;;3.50;;
9508;SDS011;4792;50.088;8.122;2023-09-07T07:07:39;6.53;;;3.72;;
9508;SDS011;4792;50.088;8.122;2023-09-07T07:10:07;4.50;;;4.03;;
9508;SDS011;4792;50.088;8.122;2023-09-07T07:12:38;5.90;;;4.03;;
9508;SDS011;4792;50.088;8.122;2023-09-07T07:15:06;11.20;;;4.53;;
9508;SDS011;4792;50.088;8.122;2023-09-07T07:17:35;12.93;;;4.30;;
9508;SDS011;4792;50.088;8.122;2023-09-07T07:20:02;9.37;;;3.97;;
9508;SDS011;4792;50.088;8.122;2023-09-07T07:22:30;6.97;;;4.00;;
9508;SDS011;4792;50.088;8.122;2023-09-07T07:25:03;7.60;;;3.80;;
9508;SDS011;4792;50.088;8.122;2023-09-07T07:27:32;5.60;;;3.92;;
9508;SDS011;4792;50.088;8.122;2023-09-07T07:29:59;6.80;;;4.07;;
9508;SDS011;4792;50.088;8.122;2023-09-07T07:32:28;9.60;;;4.23;;
9508;SDS011;4792;50.088;8.122;2023-09-07T07:34:55;9.23;;;4.40;;
9508;SDS011;4792;50.088;8.122;2023-09-07T07:37:23;5.90;;;3.83;;
9508;SDS011;4792;50.088;8.122;2023-09-07T07:39:51;4.35;;;3.95;;
9508;SDS011;4792;50.088;8.122;2023-09-07T07:42:20;4.47;;;4.00;;
9508;SDS011;4792;50.088;8.122;2023-09-07T07:44:47;5.05;;;3.95;;
9508;SDS011;4792;50.088;8.122;2023-09-07T07:47:15;4.72;;;3.80;;
9508;SDS011;4792;50.088;8.122;2023-09-07T07:49:43;5.78;;;4.53;;
9508;SDS011;4792;50.088;8.122;2023-09-07T07:52:11;4.93;;;3.40;;
9508;SDS011;4792;50.088;8.122;2023-09-07T07:54:38;8.43;;;3.90;;
9508;SDS011;4792;50.088;8.122;2023-09-07T07:57:06;6.45;;;4.20;;
9508;SDS011;4792;50.088;8.122;2023-09-07T07:59:35;9.95;;;4.35;;
9508;SDS011;4792;50.088;8.122;2023-09-07T08:02:03;4.40;;;4.00;;
9508;SDS011;4792;50.088;8.122;2023-09-07T08:04:32;5.72;;;3.78;;
9508;SDS011;4792;50.088;8.122;2023-09-07T08:07:01;6.13;;;3.78;;
9508;SDS011;4792;50.088;8.122;2023-09-07T08:09:30;4.82;;;3.83;;
9508;SDS011;4792;50.088;8.122;2023-09-07T08:11:58;4.57;;;4.13;;
9508;SDS011;4792;50.088;8.122;2023-09-07T08:14:28;6.13;;;4.13;;
9508;SDS011;4792;50.088;8.122;2023-09-07T08:16:58;7.40;;;3.75;;
9508;SDS011;4792;50.088;8.122;2023-09-07T08:19:26;8.57;;;4.25;;
9508;SDS011;4792;50.088;8.122;2023-09-07T08:21:54;6.25;;;3.97;;
9508;SDS011;4792;50.088;8.122;2023-09-07T08:24:22;6.38;;;3.70;;
9508;SDS011;4792;50.088;8.122;2023-09-07T08:26:58;6.45;;;4.32;;
9508;SDS011;4792;50.088;8.122;2023-09-07T08:29:26;5.45;;;3.88;;
9508;SDS011;4792;50.088;8.122;2023-09-07T08:31:59;4.85;;;3.80;;
9508;SDS011;4792;50.088;8.122;2023-09-07T08:34:30;5.70;;;3.63;;
9508;SDS011;4792;50.088;8.122;2023-09-07T08:36:58;8.90;;;3.63;;
9508;SDS011;4792;50.088;8.122;2023-09-07T08:39:26;4.28;;;3.55;;
9508;SDS011;4792;50.088;8.122;2023-09-07T08:41:54;5.45;;;3.60;;
9508;SDS011;4792;50.088;8.122;2023-09-07T08:44:28;6.03;;;4.10;;
9508;SDS011;4792;50.088;8.122;2023-09-07T08:46:57;8.20;;;4.07;;
9508;SDS011;4792;50.088;8.122;2023-09-07T08:49:26;6.05;;;4.13;;
9508;SDS011;4792;50.088;8.122;2023-09-07T08:51:54;3.90;;;3.28;;
9508;SDS011;4792;50.088;8.122;2023-09-07T08:54:25;4.75;;;4.22;;
9508;SDS011;4792;50.088;8.122;2023-09-07T08:56:54;5.50;;;3.67;;
9508;SDS011;4792;50.088;8.122;2023-09-07T08:59:23;7.22;;;3.70;;
9508;SDS011;4792;50.088;8.122;2023-09-07T09:01:55;6.22;;;3.97;;
9508;SDS011;4792;50.088;8.122;2023-09-07T09:04:26;4.18;;;3.78;;
9508;SDS011;4792;50.088;8.122;2023-09-07T09:06:55;6.93;;;3.70;;
9508;SDS011;4792;50.088;8.122;2023-09-07T09:09:22;4.25;;;3.63;;
9508;SDS011;4792;50.088;8.122;2023-09-07T09:11:50;5.43;;;3.88;;
9508;SDS011;4792;50.088;8.122;2023-09-07T09:14:18;8.63;;;4.07;;
9508;SDS011;4792;50.088;8.122;2023-09-07T09:16:51;4.68;;;3.80;;
9508;SDS011;4792;50.088;8.122;2023-09-07T09:19:18;5.32;;;3.78;;
9508;SDS011;4792;50.088;8.122;2023-09-07T09:21:47;5.45;;;3.75;;
9508;SDS011;4792;50.088;8.122;2023-09-07T09:24:16;6.43;;;3.58;;
9508;SDS011;4792;50.088;8.122;2023-09-07T09:26:44;8.80;;;3.75;;
9508;SDS011;4792;50.088;8.122;2023-09-07T09:29:12;9.52;;;3.50;;
9508;SDS011;4792;50.088;8.122;2023-09-07T09:31:41;6.60;;;3.92;;
9508;SDS011;4792;50.088;8.122;2023-09-07T09:34:09;8.40;;;3.65;;
9508;SDS011;4792;50.088;8.122;2023-09-07T09:36:36;5.25;;;3.75;;
9508;SDS011;4792;50.088;8.122;2023-09-07T09:39:08;4.15;;;3.35;;
9508;SDS011;4792;50.088;8.122;2023-09-07T09:41:35;7.32;;;4.13;;
9508;SDS011;4792;50.088;8.122;2023-09-07T09:44:05;4.80;;;3.80;;
9508;SDS011;4792;50.088;8.122;2023-09-07T09:46:33;7.63;;;3.97;;
9508;SDS011;4792;50.088;8.122;2023-09-07T09:49:02;4.00;;;3.50;;
9508;SDS011;4792;50.088;8.122;2023-09-07T09:51:30;3.70;;;3.40;;
9508;SDS011;4792;50.088;8.122;2023-09-07T09:53:58;6.15;;;3.58;;
9508;SDS011;4792;50.088;8.122;2023-09-07T09:56:29;5.35;;;3.42;;
9508;SDS011;4792;50.088;8.122;2023-09-07T09:58:57;8.52;;;4.00;;
9508;SDS011;4792;50.088;8.122;2023-09-07T10:01:25;4.93;;;4.00;;
9508;SDS011;4792;50.088;8.122;2023-09-07T10:03:53;5.55;;;4.07;;
9508;SDS011;4792;50.088;8.122;2023-09-07T10:06:23;5.25;;;3.65;;
9508;SDS011;4792;50.088;8.122;2023-09-07T10:08:58;5.15;;;3.65;;
9508;SDS011;4792;50.088;8.122;2023-09-07T10:11:26;6.93;;;3.75;;
9508;SDS011;4792;50.088;8.122;2023-09-07T10:13:58;4.57;;;3.55;;
9508;SDS011;4792;50.088;8.122;2023-09-07T10:16:26;5.55;;;3.95;;
9508;SDS011;4792;50.088;8.122;2023-09-07T10:18:54;6.47;;;3.75;;
9508;SDS011;4792;50.088;8.122;2023-09-07T10:21:24;10.93;;;3.95;;
9508;SDS011;4792;50.088;8.122;2023-09-07T10:23:52;4.10;;;3.58;;
9508;SDS011;4792;50.088;8.122;2023-09-07T10:26:20;5.10;;;3.90;;
9508;SDS011;4792;50.088;8.122;2023-09-07T10:28:59;12.88;;;3.83;;
9508;SDS011;4792;50.088;8.122;2023-09-07T10:31:30;5.95;;;3.97;;
9508;SDS011;4792;50.088;8.122;2023-09-07T10:34:13;6.57;;;3.80;;
9508;SDS011;4792;50.088;8.122;2023-09-07T10:36:43;6.95;;;4.20;;
9508;SDS011;4792;50.088;8.122;2023-09-07T10:39:11;4.28;;;3.88;;
9508;SDS011;4792;50.088;8.122;2023-09-07T10:41:43;5.03;;;4.00;;
9508;SDS011;4792;50.088;8.122;2023-09-07T10:44:12;7.55;;;3.83;;
9508;SDS011;4792;50.088;8.122;2023-09-07T10:46:40;4.75;;;3.92;;
9508;SDS011;4792;50.088;8.122;2023-09-07T10:49:08;6.55;;;3.70;;
9508;SDS011;4792;50.088;8.122;2023-09-07T10:51:41;8.23;;;4.25;;
9508;SDS011;4792;50.088;8.122;2023-09-07T10:54:14;7.57;;;4.10;;
9508;SDS011;4792;50.088;8.122;2023-09-07T10:56:43;4.65;;;4.00;;
9508;SDS011;4792;50.088;8.122;2023-09-07T10:59:13;5.07;;;4.00;;
9508;SDS011;4792;50.088;8.122;2023-09-07T11:01:41;6.55;;;4.00;;
9508;SDS011;4792;50.088;8.122;2023-09-07T11:04:10;7.35;;;4.00;;
9508;SDS011;4792;50.088;8.122;2023-09-07T11:06:39;5.93;;;3.80;;
9508;SDS011;4792;50.088;8.122;2023-09-07T11:09:08;5.35;;;4.45;;
9508;SDS011;4792;50.088;8.122;2023-09-07T11:11:37;10.65;;;3.78;;
9508;SDS011;4792;50.088;8.122;2023-09-07T11:14:05;5.28;;;3.70;;
9508;SDS011;4792;50.088;8.122;2023-09-07T11:16:34;6.20;;;3.97;;
9508;SDS011;4792;50.088;8.122;2023-09-07T11:19:03;14.73;;;4.10;;
9508;SDS011;4792;50.088;8.122;2023-09-07T11:21:31;7.03;;;4.40;;
9508;SDS011;4792;50.088;8.122;2023-09-07T11:24:00;7.53;;;3.88;;
9508;SDS011;4792;50.088;8.122;2023-09-07T11:26:40;7.05;;;3.67;;
9508;SDS011;4792;50.088;8.122;2023-09-07T11:29:08;5.20;;;3.90;;
9508;SDS011;4792;50.088;8.122;2023-09-07T11:31:37;4.88;;;4.00;;
9508;SDS011;4792;50.088;8.122;2023-09-07T11:34:08;5.85;;;3.72;;
9508;SDS011;4792;50.088;8.122;2023-09-07T11:36:36;5.68;;;3.83;;
9508;SDS011;4792;50.088;8.122;2023-09-07T11:39:04;6.53;;;4.13;;
9508;SDS011;4792;50.088;8.122;2023-09-07T11:41:38;5.25;;;3.50;;
9508;SDS011;4792;50.088;8.122;2023-09-07T11:44:07;7.40;;;4.20;;
9508;SDS011;4792;50.088;8.122;2023-09-07T11:46:35;7.03;;;3.85;;
9508;SDS011;4792;50.088;8.122;2023-09-07T11:49:04;4.75;;;3.65;;
9508;SDS011;4792;50.088;8.122;2023-09-07T11:51:32;4.65;;;3.92;;
9508;SDS011;4792;50.088;8.122;2023-09-07T11:54:01;5.00;;;3.70;;
9508;SDS011;4792;50.088;8.122;2023-09-07T11:56:29;4.47;;;3.92;;
9508;SDS011;4792;50.088;8.122;2023-09-07T11:58:56;4.82;;;4.07;;
9508;SDS011;4792;50.088;8.122;2023-09-07T12:01:24;6.60;;;3.42;;
9508;SDS011;4792;50.088;8.122;2023-09-07T12:03:53;3.85;;;3.50;;
9508;SDS011;4792;50.088;8.122;2023-09-07T12:06:23;6.03;;;4.10;;
9508;SDS011;4792;50.088;8.122;2023-09-07T12:09:00;7.43;;;4.30;;
9508;SDS011;4792;50.088;8.122;2023-09-07T12:11:28;6.30;;;4.15;;
9508;SDS011;4792;50.088;8.122;2023-09-07T12:13:57;5.82;;;3.83;;
9508;SDS011;4792;50.088;8.122;2023-09-07T12:16:24;6.05;;;4.72;;
9508;SDS011;4792;50.088;8.122;2023-09-07T12:18:53;5.45;;;4.38;;
9508;SDS011;4792;50.088;8.122;2023-09-07T12:21:20;5.45;;;3.78;;
9508;SDS011;4792;50.088;8.122;2023-09-07T12:23:49;6.43;;;4.13;;
9508;SDS011;4792;50.088;8.122;2023-09-07T12:26:17;5.47;;;3.60;;
9508;SDS011;4792;50.088;8.122;2023-09-07T12:28:47;4.88;;;3.90;;
9508;SDS011;4792;50.088;8.122;2023-09-07T12:31:15;4.40;;;4.00;;
9508;SDS011;4792;50.088;8.122;2023-09-07T12:33:43;4.95;;;4.03;;
9508;SDS011;4792;50.088;8.122;2023-09-07T12:36:10;7.40;;;4.25;;
9508;SDS011;4792;50.088;8.122;2023-09-07T12:38:39;7.10;;;3.75;;
9508;SDS011;4792;50.088;8.122;2023-09-07T12:41:07;7.07;;;4.25;;
9508;SDS011;4792;50.088;8.122;2023-09-07T12:43:35;4.13;;;3.70;;
9508;SDS011;4792;50.088;8.122;2023-09-07T12:46:03;4.15;;;3.75;;
9508;SDS011;4792;50.088;8.122;2023-09-07T12:48:31;3.92;;;3.53;;
9508;SDS011;4792;50.088;8.122;2023-09-07T12:50:58;9.10;;;4.00;;
9508;SDS011;4792;50.088;8.122;2023-09-07T12:53:26;6.20;;;3.63;;
9508;SDS011;4792;50.088;8.122;2023-09-07T12:55:55;5.50;;;3.40;;
9508;SDS011;4792;50.088;8.122;2023-09-07T12:58:23;5.03;;;3.45;;
9508;SDS011;4792;50.088;8.122;2023-09-07T13:00:51;5.75;;;3.60;;
9508;SDS011;4792;50.088;8.122;2023-09-07T13:03:19;5.50;;;3.28;;
9508;SDS011;4792;50.088;8.122;2023-09-07T13:05:47;9.65;;;3.63;;
9508;SDS011;4792;50.088;8.122;2023-09-07T13:08:15;3.85;;;3.42;;
9508;SDS011;4792;50.088;8.122;2023-09-07T13:10:42;5.95;;;3.38;;
9508;SDS011;4792;50.088;8.122;2023-09-07T13:13:11;5.53;;;3.50;;
9508;SDS011;4792;50.088;8.122;2023-09-07T13:15:39;4.63;;;3.60;;
9508;SDS011;4792;50.088;8.122;2023-09-07T13:18:07;5.63;;;3.60;;
9508;SDS011;4792;50.088;8.122;2023-09-07T13:20:34;5.50;;;3.30;;
9508;SDS011;4792;50.088;8.122;2023-09-07T13:23:02;7.50;;;3.72;;
9508;SDS011;4792;50.088;8.122;2023-09-07T13:25:30;7.70;;;3.58;;
9508;SDS011;4792;50.088;8.122;2023-09-07T13:27:58;4.50;;;3.80;;
9508;SDS011;4792;50.088;8.122;2023-09-07T13:30:28;4.70;;;3.50;;
9508;SDS011;4792;50.088;8.122;2023-09-07T13:32:56;4.90;;;3.50;;
9508;SDS011;4792;50.088;8.122;2023-09-07T13:35:23;5.05;;;3.42;;
9508;SDS011;4792;50.088;8.122;2023-09-07T13:37:51;7.45;;;3.72;;
9508;SDS011;4792;50.088;8.122;2023-09-07T13:40:19;4.93;;;3.90;;
9508;SDS011;4792;50.088;8.122;2023-09-07T13:42:50;6.68;;;3.22;;
9508;SDS011;4792;50.088;8.122;2023-09-07T13:45:17;4.85;;;3.50;;
9508;SDS011;4792;50.088;8.122;2023-09-07T13:47:46;3.92;;;3.13;;
9508;SDS011;4792;50.088;8.122;2023-09-07T13:50:14;4.72;;;3.38;;
9508;SDS011;4792;50.088;8.122;2023-09-07T13:52:42;6.95;;;3.80;;
9508;SDS011;4792;50.088;8.122;2023-09-07T13:55:09;6.90;;;3.60;;
9508;SDS011;4792;50.088;8.122;2023-09-07T13:57:37;4.22;;;3.55;;
9508;SDS011;4792;50.088;8.122;2023-09-07T14:00:05;9.02;;;3.97;;
9508;SDS011;4792;50.088;8.122;2023-09-07T14:02:33;3.58;;;3.28;;
9508;SDS011;4792;50.088;8.122;2023-09-07T14:05:02;6.10;;;3.35;;
9508;SDS011;4792;50.088;8.122;2023-09-07T14:07:31;4.10;;;3.70;;
9508;SDS011;4792;50.088;8.122;2023-09-07T14:09:58;4.28;;;3.53;;
9508;SDS011;4792;50.088;8.122;2023-09-07T14:12:27;7.07;;;3.80;;
9508;SDS011;4792;50.088;8.122;2023-09-07T14:14:54;5.75;;;3.63;;
9508;SDS011;4792;50.088;8.122;2023-09-07T14:17:22;5.35;;;3.47;;
9508;SDS011;4792;50.088;8.122;2023-09-07T14:19:50;6.55;;;3.97;;
9508;SDS011;4792;50.088;8.122;2023-09-07T14:22:19;6.82;;;3.58;;
9508;SDS011;4792;50.088;8.122;2023-09-07T14:24:46;5.72;;;3.53;;
9508;SDS011;4792;50.088;8.122;2023-09-07T14:27:14;6.50;;;3.47;;
9508;SDS011;4792;50.088;8.122;2023-09-07T14:29:41;5.90;;;4.00;;
9508;SDS011;4792;50.088;8.122;2023-09-07T14:32:09;4.75;;;3.78;;
9508;SDS011;4792;50.088;8.122;2023-09-07T14:34:37;4.60;;;3.97;;
9508;SDS011;4792;50.088;8.122;2023-09-07T14:37:05;6.35;;;3.85;;
9508;SDS011;4792;50.088;8.122;2023-09-07T14:39:34;5.40;;;3.90;;
9508;SDS011;4792;50.088;8.122;2023-09-07T14:42:02;4.13;;;3.72;;
9508;SDS011;4792;50.088;8.122;2023-09-07T14:44:32;7.80;;;3.65;;
9508;SDS011;4792;50.088;8.122;2023-09-07T14:46:59;8.15;;;3.75;;
9508;SDS011;4792;50.088;8.122;2023-09-07T14:49:27;5.28;;;3.60;;
9508;SDS011;4792;50.088;8.122;2023-09-07T14:51:55;3.42;;;3.13;;
9508;SDS011;4792;50.088;8.122;2023-09-07T14:54:23;8.02;;;3.35;;
9508;SDS011;4792;50.088;8.122;2023-09-07T14:56:52;6.30;;;3.67;;
9508;SDS011;4792;50.088;8.122;2023-09-07T14:59:19;4.53;;;3.63;;
9508;SDS011;4792;50.088;8.122;2023-09-07T15:01:47;5.18;;;3.58;;
9508;SDS011;4792;50.088;8.122;2023-09-07T15:04:27;5.80;;;4.03;;
9508;SDS011;4792;50.088;8.122;2023-09-07T15:06:55;4.15;;;3.75;;
9508;SDS011;4792;50.088;8.122;2023-09-07T15:09:22;3.55;;;3.25;;
9508;SDS011;4792;50.088;8.122;2023-09-07T15:11:52;6.35;;;3.35;;
9508;SDS011;4792;50.088;8.122;2023-09-07T15:14:20;5.10;;;3.72;;
9508;SDS011;4792;50.088;8.122;2023-09-07T15:16:48;5.60;;;3.83;;
9508;SDS011;4792;50.088;8.122;2023-09-07T15:19:15;7.05;;;3.70;;
9508;SDS011;4792;50.088;8.122;2023-09-07T15:21:43;4.53;;;3.63;;